logo
Search for airport 
image banner adimage banner adimage banner ad
image banner ad

UASK - Ust-Kamenogorsk

Located in Ust-Kamenogorsk, Kazakhstan

ICAO - UASK, IATA - UKK

Data provided by Airmate  

General information

Coordinates: N50°2'9" E82°29'43"
Elevation is 942 feet MSL.
Magnetic variation is 6.27° East
View others Airports in East Kazakhstan

Operational data

Special qualification required
Current time UTC:
Current local time:
Weather
METAR: UASK 011800Z 10002MPS 070V150 3000 BR NSC 04/03 Q1021 NOSIG RMK QFE740/0987
TAF: TAF UASK 011659Z 0118/0203 VRB01MPS 3100 BR NSC TEMPO 0118/0124 0200 FG VV002
View NOTAMs / SUP AIP / TFR affecting this airport [VIEW]
Communications frequencies: [VIEW]

Runways:

RWY identifierQFULength (ft)Width (ft)SurfaceLDA (ft)
12131°9186148CONC+ASPH9186
30311°9186148CONC+ASPH9186

Airport contact information

Address: Ust-Kamenogorsk Kazakhstan

Satellite view of UASK